createdAt,value
2023-03-19T00:00:30.353Z,95866
2023-03-19T00:01:30.317Z,95866
2023-03-19T00:02:30.354Z,95865
2023-03-19T00:03:30.499Z,95867
2023-03-19T00:04:30.375Z,95867
2023-03-19T00:05:30.403Z,95874
2023-03-19T00:06:30.334Z,95872
2023-03-19T00:07:30.347Z,95875
2023-03-19T00:08:30.339Z,95874
2023-03-19T00:09:30.396Z,95875
2023-03-19T00:10:30.421Z,95876
2023-03-19T00:13:30.372Z,95875
2023-03-19T00:14:30.400Z,95876
2023-03-19T00:16:30.440Z,95878
2023-03-19T00:17:30.395Z,95879
2023-03-19T00:19:30.421Z,95882
2023-03-19T00:20:30.443Z,95881
2023-03-19T00:23:30.428Z,95880
2023-03-19T00:24:30.387Z,95883
2023-03-19T00:25:30.396Z,95881
2023-03-19T00:26:30.388Z,95881
2023-03-19T00:27:30.442Z,95882
2023-03-19T00:28:30.453Z,95882
2023-03-19T00:29:30.433Z,95884
2023-03-19T00:30:30.470Z,95888
2023-03-19T00:31:30.405Z,95888
2023-03-19T00:32:30.458Z,95888
2023-03-19T00:33:30.444Z,95889
2023-03-19T00:34:30.417Z,95894
2023-03-19T00:36:30.455Z,95892
2023-03-19T00:37:30.452Z,95892
2023-03-19T00:38:30.422Z,95897
2023-03-19T00:39:30.422Z,95895
2023-03-19T00:40:30.467Z,95896
2023-03-19T00:41:30.447Z,95898
2023-03-19T00:42:30.463Z,95900
2023-03-19T00:44:30.440Z,95901
2023-03-19T00:45:30.868Z,95905
2023-03-19T00:46:30.544Z,95902
2023-03-19T00:47:30.479Z,95905
2023-03-19T00:48:30.486Z,95907
2023-03-19T00:49:30.495Z,95907
2023-03-19T00:50:30.467Z,95907
2023-03-19T00:51:30.477Z,95911
2023-03-19T00:52:30.480Z,95914
2023-03-19T00:54:30.553Z,95918
2023-03-19T00:55:30.548Z,95919
2023-03-19T00:56:30.465Z,95915
2023-03-19T00:57:30.529Z,95920
2023-03-19T00:58:30.511Z,95921
2023-03-19T00:59:30.498Z,95918
2023-03-19T01:00:30.564Z,95915
2023-03-19T01:01:30.617Z,95918
2023-03-19T01:02:30.524Z,95922
2023-03-19T01:03:30.508Z,95920
2023-03-19T01:04:30.702Z,95921
2023-03-19T01:05:30.580Z,95918
2023-03-19T01:06:30.532Z,95919
2023-03-19T01:07:30.523Z,95922
2023-03-19T01:09:30.517Z,95921
2023-03-19T01:10:30.552Z,95920
2023-03-19T01:11:30.542Z,95920
2023-03-19T01:12:30.555Z,95918
2023-03-19T01:13:30.530Z,95919
2023-03-19T01:14:30.532Z,95919
2023-03-19T01:16:30.556Z,95920
2023-03-19T01:17:30.544Z,95917
2023-03-19T01:19:30.549Z,95920
2023-03-19T01:20:30.675Z,95920
2023-03-19T01:21:30.597Z,95923
2023-03-19T01:22:30.519Z,95920
2023-03-19T01:23:30.554Z,95920
2023-03-19T01:24:30.617Z,95922
2023-03-19T01:25:30.682Z,95925
2023-03-19T01:26:30.563Z,95923
2023-03-19T01:27:30.558Z,95929
2023-03-19T01:28:30.570Z,95927
2023-03-19T01:29:30.602Z,95927
2023-03-19T01:30:30.591Z,95928
2023-03-19T01:31:30.670Z,95924
2023-03-19T01:34:30.628Z,95925
2023-03-19T01:35:30.668Z,95924
2023-03-19T01:36:30.635Z,95927
2023-03-19T01:37:30.599Z,95928
2023-03-19T01:38:30.559Z,95929
2023-03-19T01:41:30.618Z,95931
2023-03-19T01:42:30.619Z,95930
2023-03-19T01:43:30.616Z,95928
2023-03-19T01:44:30.602Z,95928
2023-03-19T01:48:30.653Z,95933
2023-03-19T01:49:30.623Z,95932
2023-03-19T01:52:30.635Z,95931
2023-03-19T01:54:30.605Z,95931
2023-03-19T01:56:30.635Z,95934
2023-03-19T01:57:30.633Z,95932
2023-03-19T01:58:30.648Z,95933
2023-03-19T02:00:30.850Z,95930
2023-03-19T02:01:30.706Z,95929
2023-03-19T02:02:30.675Z,95925
2023-03-19T02:03:30.639Z,95928
2023-03-19T02:04:30.628Z,95930
2023-03-19T02:05:30.675Z,95932
2023-03-19T02:06:30.630Z,95929
2023-03-19T02:10:30.905Z,95939
2023-03-19T02:11:30.672Z,95939
2023-03-19T02:13:30.770Z,95935
2023-03-19T02:14:30.716Z,95933
2023-03-19T02:15:30.704Z,95934
2023-03-19T02:16:30.768Z,95935
2023-03-19T02:17:30.652Z,95932
2023-03-19T02:18:30.754Z,95934
2023-03-19T02:19:30.653Z,95934
2023-03-19T02:20:30.654Z,95932
2023-03-19T02:21:30.702Z,95935
2023-03-19T02:22:30.663Z,95935
2023-03-19T02:23:30.706Z,95934
2023-03-19T02:24:30.663Z,95934
2023-03-19T02:25:30.724Z,95937
2023-03-19T02:26:30.719Z,95937
2023-03-19T02:27:30.688Z,95936
2023-03-19T02:28:30.735Z,95937
2023-03-19T02:29:30.732Z,95938
2023-03-19T02:30:30.724Z,95936
2023-03-19T02:31:30.780Z,95935
2023-03-19T02:32:30.744Z,95940
2023-03-19T02:33:30.752Z,95937
2023-03-19T02:34:30.745Z,95941
2023-03-19T02:35:30.775Z,95941
2023-03-19T02:36:30.700Z,95942
2023-03-19T02:37:33.500Z,95944
2023-03-19T02:38:30.776Z,95942
2023-03-19T02:40:30.953Z,95942
2023-03-19T02:41:30.760Z,95940
2023-03-19T02:42:30.760Z,95945
2023-03-19T02:43:30.748Z,95945
2023-03-19T02:45:30.764Z,95944
2023-03-19T02:48:30.768Z,95946
2023-03-19T02:49:30.744Z,95944
2023-03-19T02:50:30.790Z,95945
2023-03-19T02:52:30.758Z,95943
2023-03-19T02:53:30.781Z,95943
2023-03-19T02:54:30.835Z,95942
2023-03-19T02:55:30.787Z,95942
2023-03-19T02:56:30.804Z,95946
2023-03-19T02:57:30.792Z,95945
2023-03-19T02:58:30.801Z,95945
2023-03-19T03:00:30.855Z,95947
2023-03-19T03:01:30.793Z,95947
2023-03-19T03:02:30.900Z,95948
2023-03-19T03:03:30.814Z,95948
2023-03-19T03:05:30.766Z,95953
2023-03-19T03:06:30.790Z,95953
2023-03-19T03:07:30.776Z,95953
2023-03-19T03:08:30.778Z,95955
2023-03-19T03:09:30.817Z,95950
2023-03-19T03:11:30.830Z,95957
2023-03-19T03:14:30.792Z,95956
2023-03-19T03:15:30.812Z,95958
2023-03-19T03:17:30.817Z,95963
2023-03-19T03:18:30.855Z,95964
2023-03-19T03:19:30.893Z,95966
2023-03-19T03:20:30.862Z,95964
2023-03-19T03:21:30.817Z,95966
2023-03-19T03:22:30.868Z,95973
2023-03-19T03:23:30.857Z,95968
2023-03-19T03:24:30.864Z,95966
2023-03-19T03:25:30.863Z,95966
2023-03-19T03:26:30.875Z,95968
2023-03-19T03:27:30.927Z,95967
2023-03-19T03:28:30.888Z,95967
2023-03-19T03:29:30.881Z,95968
2023-03-19T03:30:30.836Z,95967
2023-03-19T03:31:30.926Z,95969
2023-03-19T03:32:30.903Z,95970
2023-03-19T03:33:30.886Z,95969
2023-03-19T03:34:30.900Z,95968
2023-03-19T03:35:30.941Z,95970
2023-03-19T03:36:30.892Z,95971
2023-03-19T03:37:30.951Z,95972
2023-03-19T03:38:30.908Z,95975
2023-03-19T03:39:30.864Z,95976
2023-03-19T03:40:30.866Z,95976
2023-03-19T03:41:30.931Z,95973
2023-03-19T03:42:30.941Z,95977
2023-03-19T03:43:30.929Z,95977
2023-03-19T03:44:30.918Z,95971
2023-03-19T03:45:30.959Z,95971
2023-03-19T03:46:30.943Z,95978
2023-03-19T03:47:30.965Z,95974
2023-03-19T03:48:30.909Z,95976
2023-03-19T03:49:30.933Z,95975
2023-03-19T03:50:30.920Z,95975
2023-03-19T03:51:30.892Z,95979
2023-03-19T03:53:30.949Z,95986
2023-03-19T03:54:30.949Z,95982
2023-03-19T03:55:30.951Z,95985
2023-03-19T03:56:30.920Z,95984
2023-03-19T03:57:30.941Z,95985
2023-03-19T03:58:30.988Z,95984
2023-03-19T03:59:30.955Z,95984
2023-03-19T04:00:31.068Z,95988
2023-03-19T04:01:30.924Z,95988
2023-03-19T04:02:31.017Z,95988
2023-03-19T04:03:30.967Z,95988
2023-03-19T04:04:30.974Z,95990
2023-03-19T04:05:31.024Z,95988
2023-03-19T04:06:30.932Z,95991
2023-03-19T04:07:30.992Z,95993
2023-03-19T04:08:30.977Z,95993
2023-03-19T04:09:30.948Z,95998
2023-03-19T04:10:31.059Z,95997
2023-03-19T04:11:30.954Z,95998
2023-03-19T04:12:30.963Z,95999
2023-03-19T04:13:30.947Z,96001
2023-03-19T04:14:30.964Z,96002
2023-03-19T04:15:30.972Z,96004
2023-03-19T04:16:31.018Z,96004
2023-03-19T04:17:30.978Z,96008
2023-03-19T04:18:31.006Z,96006
2023-03-19T04:19:31.018Z,96003
2023-03-19T04:20:31.067Z,96003
2023-03-19T04:21:30.988Z,96003
2023-03-19T04:22:31.009Z,96001
2023-03-19T04:23:31.026Z,95998
2023-03-19T04:24:31.025Z,96002
2023-03-19T04:25:31.027Z,96004
2023-03-19T04:26:31.133Z,96004
2023-03-19T04:27:30.997Z,96006
2023-03-19T04:28:30.990Z,96006
2023-03-19T04:29:31.011Z,96008
2023-03-19T04:30:32.931Z,96008
2023-03-19T04:31:31.035Z,96008
2023-03-19T04:32:31.104Z,96008
2023-03-19T04:33:31.007Z,96009
2023-03-19T04:34:31.003Z,96008
2023-03-19T04:35:31.072Z,96008
2023-03-19T04:36:31.044Z,96008
2023-03-19T04:37:31.025Z,96013
2023-03-19T04:38:31.072Z,96008
2023-03-19T04:39:31.013Z,96008
2023-03-19T04:41:31.046Z,96008
2023-03-19T04:42:31.038Z,96011
2023-03-19T04:43:31.041Z,96010
2023-03-19T04:44:31.085Z,96011
2023-03-19T04:45:31.069Z,96014
2023-03-19T04:46:31.162Z,96013
2023-03-19T04:47:31.071Z,96013
2023-03-19T04:48:31.069Z,96013
2023-03-19T04:49:31.043Z,96013
2023-03-19T04:50:31.252Z,96016
2023-03-19T04:51:31.112Z,96016
2023-03-19T04:52:31.075Z,96019
2023-03-19T04:53:31.080Z,96021
2023-03-19T04:55:31.051Z,96021
2023-03-19T04:56:31.140Z,96020
2023-03-19T04:57:31.091Z,96025
2023-03-19T04:58:31.112Z,96024
2023-03-19T04:59:31.062Z,96025
2023-03-19T05:00:31.169Z,96025
2023-03-19T05:01:31.152Z,96026
2023-03-19T05:02:31.075Z,96026
2023-03-19T05:03:31.186Z,96026
2023-03-19T05:04:31.118Z,96027
2023-03-19T05:05:31.091Z,96029
2023-03-19T05:06:31.202Z,96027
2023-03-19T05:07:31.123Z,96027
2023-03-19T05:10:31.099Z,96032
2023-03-19T05:11:31.127Z,96032
2023-03-19T05:12:31.140Z,96035
2023-03-19T05:13:31.104Z,96035
2023-03-19T05:14:31.092Z,96035
2023-03-19T05:16:31.115Z,96035
2023-03-19T05:17:31.125Z,96031
2023-03-19T05:18:31.109Z,96031
2023-03-19T05:19:31.116Z,96034
2023-03-19T05:22:31.124Z,96031
2023-03-19T05:23:31.133Z,96036
2023-03-19T05:24:31.144Z,96035
2023-03-19T05:26:31.205Z,96035
2023-03-19T05:27:31.182Z,96035
2023-03-19T05:28:31.188Z,96038
2023-03-19T05:29:31.163Z,96038
2023-03-19T05:30:31.161Z,96036
2023-03-19T05:31:31.184Z,96036
2023-03-19T05:32:31.268Z,96033
2023-03-19T05:33:31.209Z,96035
2023-03-19T05:34:31.231Z,96035
2023-03-19T05:35:31.238Z,96034
2023-03-19T05:36:31.208Z,96035
2023-03-19T05:37:31.179Z,96036
2023-03-19T05:38:31.149Z,96036
2023-03-19T05:39:31.196Z,96033
2023-03-19T05:41:31.205Z,96037
2023-03-19T05:42:31.216Z,96036
2023-03-19T05:43:31.202Z,96036
2023-03-19T05:44:31.211Z,96034
2023-03-19T05:45:31.199Z,96036
2023-03-19T05:46:31.357Z,96039
2023-03-19T05:47:31.234Z,96037
2023-03-19T05:49:31.252Z,96043
2023-03-19T05:50:31.217Z,96042
2023-03-19T05:51:31.234Z,96041
2023-03-19T05:52:31.311Z,96042
2023-03-19T05:53:31.234Z,96043
2023-03-19T05:54:31.239Z,96045
2023-03-19T05:55:31.249Z,96048
2023-03-19T05:56:31.235Z,96051
2023-03-19T05:57:31.257Z,96049
2023-03-19T05:58:31.217Z,96052
2023-03-19T05:59:31.217Z,96052
2023-03-19T06:00:31.231Z,96053
2023-03-19T06:01:31.342Z,96054
2023-03-19T06:02:31.325Z,96055
2023-03-19T06:03:31.280Z,96055
2023-03-19T06:04:31.279Z,96059
2023-03-19T06:05:31.309Z,96060
2023-03-19T06:06:31.266Z,96060
2023-03-19T06:07:31.262Z,96061
2023-03-19T06:08:31.267Z,96062
2023-03-19T06:09:31.230Z,96058
2023-03-19T06:10:31.276Z,96060
2023-03-19T06:14:31.246Z,96060
2023-03-19T06:15:31.455Z,96063
2023-03-19T06:16:31.389Z,96061
2023-03-19T06:17:31.260Z,96062
2023-03-19T06:18:31.326Z,96062
2023-03-19T06:19:31.312Z,96060
2023-03-19T06:20:31.358Z,96062
2023-03-19T06:21:31.301Z,96062
2023-03-19T06:23:31.308Z,96058
2023-03-19T06:24:31.278Z,96062
2023-03-19T06:25:31.297Z,96058
2023-03-19T06:26:31.345Z,96062
2023-03-19T06:27:31.482Z,96056
2023-03-19T06:30:31.356Z,96058
2023-03-19T06:31:31.357Z,96061
2023-03-19T06:32:31.323Z,96062
2023-03-19T06:33:31.304Z,96061
2023-03-19T06:34:31.356Z,96065
2023-03-19T06:35:31.439Z,96063
2023-03-19T06:36:31.347Z,96063
2023-03-19T06:37:31.358Z,96063
2023-03-19T06:38:31.324Z,96062
2023-03-19T06:39:31.328Z,96063
2023-03-19T06:40:31.466Z,96063
2023-03-19T06:41:31.321Z,96063
2023-03-19T06:42:31.379Z,96062
2023-03-19T06:43:31.328Z,96065
2023-03-19T06:44:31.318Z,96067
2023-03-19T06:45:31.406Z,96068
2023-03-19T06:46:31.353Z,96072
2023-03-19T06:47:31.338Z,96072
2023-03-19T06:48:31.353Z,96074
2023-03-19T06:49:31.362Z,96073
2023-03-19T06:50:31.515Z,96072
2023-03-19T06:51:31.388Z,96072
2023-03-19T06:52:31.391Z,96067
2023-03-19T06:53:31.388Z,96067
2023-03-19T06:54:31.397Z,96071
2023-03-19T06:55:31.410Z,96067
2023-03-19T06:56:31.371Z,96069
2023-03-19T06:57:31.362Z,96075
2023-03-19T06:58:31.371Z,96069
2023-03-19T06:59:31.389Z,96068
2023-03-19T07:00:31.459Z,96067
2023-03-19T07:01:31.467Z,96067
2023-03-19T07:02:31.370Z,96069
2023-03-19T07:03:31.478Z,96071
2023-03-19T07:04:31.399Z,96071
2023-03-19T07:05:31.394Z,96071
2023-03-19T07:08:31.408Z,96071
2023-03-19T07:09:31.432Z,96073
2023-03-19T07:10:31.522Z,96073
2023-03-19T07:11:32.631Z,96071
2023-03-19T07:12:31.411Z,96072
2023-03-19T07:13:31.410Z,96073
2023-03-19T07:14:31.405Z,96073
2023-03-19T07:15:31.417Z,96073
2023-03-19T07:16:31.465Z,96073
2023-03-19T07:17:31.412Z,96075
2023-03-19T07:18:31.433Z,96072
2023-03-19T07:19:31.466Z,96072
2023-03-19T07:20:31.531Z,96075
2023-03-19T07:21:31.474Z,96075
2023-03-19T07:22:31.465Z,96074
2023-03-19T07:23:31.438Z,96075
2023-03-19T07:24:31.481Z,96074
2023-03-19T07:25:31.482Z,96078
2023-03-19T07:26:31.445Z,96077
2023-03-19T07:27:31.492Z,96077
2023-03-19T07:28:31.440Z,96077
2023-03-19T07:29:31.448Z,96079
2023-03-19T07:30:31.498Z,96079
2023-03-19T07:31:31.519Z,96081
2023-03-19T07:32:31.499Z,96080
2023-03-19T07:33:31.526Z,96081
2023-03-19T07:34:31.507Z,96081
2023-03-19T07:35:31.542Z,96082
2023-03-19T07:36:31.462Z,96079
2023-03-19T07:37:31.506Z,96078
2023-03-19T07:38:31.494Z,96082
2023-03-19T07:39:31.495Z,96082
2023-03-19T07:40:31.589Z,96079
2023-03-19T07:41:31.496Z,96084
2023-03-19T07:42:31.511Z,96086
2023-03-19T07:43:31.487Z,96086
2023-03-19T07:44:31.499Z,96085
2023-03-19T07:45:31.473Z,96085
2023-03-19T07:46:31.474Z,96085
2023-03-19T07:47:31.488Z,96086
2023-03-19T07:48:31.528Z,96083
2023-03-19T07:49:31.487Z,96083
2023-03-19T07:50:31.781Z,96084
2023-03-19T07:51:31.486Z,96084
2023-03-19T07:52:31.489Z,96083
2023-03-19T07:53:31.536Z,96083
2023-03-19T07:54:31.542Z,96083
2023-03-19T07:55:31.536Z,96090
2023-03-19T07:56:31.540Z,96085
2023-03-19T07:57:31.547Z,96089
2023-03-19T07:58:31.557Z,96092
2023-03-19T07:59:31.570Z,96092
2023-03-19T08:00:31.557Z,96090
2023-03-19T08:01:31.518Z,96085
2023-03-19T08:02:31.623Z,96085
2023-03-19T08:03:31.543Z,96092
2023-03-19T08:04:31.603Z,96089
2023-03-19T08:05:31.599Z,96091
2023-03-19T08:06:31.564Z,96084
2023-03-19T08:07:31.578Z,96086
2023-03-19T08:08:31.580Z,96085
2023-03-19T08:09:31.563Z,96085
2023-03-19T08:10:31.635Z,96087
2023-03-19T08:11:31.574Z,96087
2023-03-19T08:12:31.585Z,96085
2023-03-19T08:13:31.576Z,96085
2023-03-19T08:14:31.585Z,96095
2023-03-19T08:15:31.622Z,96095
2023-03-19T08:16:31.599Z,96095
2023-03-19T08:17:31.591Z,96097
2023-03-19T08:18:31.622Z,96097
2023-03-19T08:19:31.616Z,96099
2023-03-19T08:20:31.794Z,96103
2023-03-19T08:21:31.594Z,96103
2023-03-19T08:22:31.581Z,96102
2023-03-19T08:23:31.618Z,96098
2023-03-19T08:24:31.577Z,96102
2023-03-19T08:25:31.668Z,96095
2023-03-19T08:26:31.620Z,96094
2023-03-19T08:27:31.614Z,96096
2023-03-19T08:28:31.629Z,96098
2023-03-19T08:29:31.818Z,96102
2023-03-19T08:30:31.674Z,96101
2023-03-19T08:31:31.602Z,96109
2023-03-19T08:32:31.695Z,96101
2023-03-19T08:33:31.601Z,96104
2023-03-19T08:34:31.629Z,96106
2023-03-19T08:35:31.613Z,96106
2023-03-19T08:36:31.683Z,96100
2023-03-19T08:37:31.604Z,96106
2023-03-19T08:38:31.611Z,96102
2023-03-19T08:39:31.620Z,96099
2023-03-19T08:41:31.698Z,96096
2023-03-19T08:42:31.658Z,96098
2023-03-19T08:43:31.648Z,96098
2023-03-19T08:44:31.714Z,96091
2023-03-19T08:45:31.622Z,96090
2023-03-19T08:46:31.674Z,96088
2023-03-19T08:47:31.630Z,96088
2023-03-19T08:48:31.636Z,96089
2023-03-19T08:49:31.686Z,96088
2023-03-19T08:50:31.825Z,96085
2023-03-19T08:51:31.654Z,96087
2023-03-19T08:52:31.671Z,96086
2023-03-19T08:53:31.690Z,96093
2023-03-19T08:54:31.716Z,96094
2023-03-19T08:55:31.680Z,96094
2023-03-19T08:56:31.712Z,96089
2023-03-19T08:57:31.688Z,96087
2023-03-19T08:58:31.665Z,96083
2023-03-19T08:59:34.032Z,96085
2023-03-19T09:00:31.825Z,96088
2023-03-19T09:01:31.710Z,96087
2023-03-19T09:02:31.718Z,96081
2023-03-19T09:03:31.671Z,96084
2023-03-19T09:04:31.771Z,96083
2023-03-19T09:05:31.684Z,96087
2023-03-19T09:06:31.685Z,96086
2023-03-19T09:07:31.775Z,96086
2023-03-19T09:08:31.691Z,96085
2023-03-19T09:09:31.686Z,96085
2023-03-19T09:10:31.722Z,96087
2023-03-19T09:11:31.718Z,96094
2023-03-19T09:12:31.730Z,96091
2023-03-19T09:13:31.742Z,96100
2023-03-19T09:14:31.741Z,96096
2023-03-19T09:15:31.712Z,96096
2023-03-19T09:16:31.739Z,96093
2023-03-19T09:17:31.799Z,96098
2023-03-19T09:18:31.729Z,96099
2023-03-19T09:19:31.760Z,96101
2023-03-19T09:20:31.721Z,96102
2023-03-19T09:21:31.760Z,96103
2023-03-19T09:22:31.764Z,96103
2023-03-19T09:23:31.734Z,96105
2023-03-19T09:24:31.749Z,96107
2023-03-19T09:25:31.935Z,96109
2023-03-19T09:26:31.795Z,96109
2023-03-19T09:27:31.745Z,96110
2023-03-19T09:28:31.826Z,96107
2023-03-19T09:29:31.780Z,96109
2023-03-19T09:30:31.783Z,96108
2023-03-19T09:31:31.832Z,96106
2023-03-19T09:32:31.833Z,96106
2023-03-19T09:33:31.761Z,96098
2023-03-19T09:34:31.810Z,96100
2023-03-19T09:35:31.804Z,96107
2023-03-19T09:36:31.802Z,96096
2023-03-19T09:37:31.802Z,96097
2023-03-19T09:38:31.774Z,96088
2023-03-19T09:39:31.799Z,96088
2023-03-19T09:40:31.795Z,96089
2023-03-19T09:41:31.826Z,96084
2023-03-19T09:42:31.835Z,96083
2023-03-19T09:43:31.848Z,96077
2023-03-19T09:44:31.789Z,96079
2023-03-19T09:45:32.077Z,96083
2023-03-19T09:46:31.794Z,96079
2023-03-19T09:47:31.836Z,96080
2023-03-19T09:48:31.811Z,96082
2023-03-19T09:49:31.798Z,96082
2023-03-19T09:50:31.846Z,96077
2023-03-19T09:51:31.840Z,96078
2023-03-19T09:52:31.810Z,96072
2023-03-19T09:53:31.851Z,96075
2023-03-19T09:54:31.837Z,96075
2023-03-19T09:55:31.861Z,96074
2023-03-19T09:56:31.875Z,96074
2023-03-19T09:57:31.860Z,96074
2023-03-19T09:58:31.864Z,96069
2023-03-19T09:59:31.871Z,96074
2023-03-19T10:00:31.862Z,96069
2023-03-19T10:01:31.917Z,96073
2023-03-19T10:05:32.045Z,96065
2023-03-19T10:09:31.921Z,96060
2023-03-19T10:10:31.893Z,96060
2023-03-19T10:11:31.899Z,96058
2023-03-19T10:18:33.163Z,96055
2023-03-19T10:19:32.238Z,96061
2023-03-19T10:20:31.928Z,96061
2023-03-19T10:21:31.888Z,96058
2023-03-19T10:22:31.964Z,96057
2023-03-19T10:23:31.940Z,96057
2023-03-19T10:24:31.922Z,96053
2023-03-19T10:25:31.937Z,96056
2023-03-19T10:26:31.946Z,96056
2023-03-19T10:27:31.966Z,96056
2023-03-19T10:28:31.912Z,96061
2023-03-19T10:29:31.947Z,96059
2023-03-19T10:30:31.923Z,96057
2023-03-19T10:31:32.017Z,96057
2023-03-19T10:32:32.028Z,96057
2023-03-19T10:33:31.946Z,96055
2023-03-19T10:34:31.968Z,96059
2023-03-19T10:36:31.973Z,96059
2023-03-19T10:37:31.966Z,96056
2023-03-19T10:38:32.000Z,96057
2023-03-19T10:39:31.969Z,96053
2023-03-19T10:40:32.018Z,96054
2023-03-19T10:41:31.983Z,96047
2023-03-19T10:42:33.095Z,96045
2023-03-19T10:43:32.018Z,96046
2023-03-19T10:44:32.006Z,96040
2023-03-19T10:45:32.111Z,96043
2023-03-19T10:46:32.012Z,96040
2023-03-19T10:47:31.955Z,96038
2023-03-19T10:48:32.009Z,96042
2023-03-19T10:49:32.006Z,96042
2023-03-19T10:50:33.438Z,96041
2023-03-19T10:53:32.026Z,96045
2023-03-19T10:54:31.994Z,96046
2023-03-19T10:55:32.339Z,96047
2023-03-19T10:56:32.048Z,96047
2023-03-19T10:57:32.056Z,96047
2023-03-19T10:58:32.056Z,96050
2023-03-19T10:59:32.013Z,96051
2023-03-19T11:00:32.062Z,96044
2023-03-19T11:01:32.127Z,96045
2023-03-19T11:02:32.045Z,96049
2023-03-19T11:03:32.225Z,96049
2023-03-19T11:04:32.013Z,96046
2023-03-19T11:05:32.253Z,96040
2023-03-19T11:06:32.020Z,96045
2023-03-19T11:07:32.051Z,96047
2023-03-19T11:08:35.852Z,96048
2023-03-19T11:09:32.046Z,96045
2023-03-19T11:10:32.070Z,96046
2023-03-19T11:11:32.068Z,96044
2023-03-19T11:12:32.015Z,96044
2023-03-19T11:13:32.040Z,96043
2023-03-19T11:15:32.085Z,96045
2023-03-19T11:16:32.079Z,96047
2023-03-19T11:17:32.032Z,96042
2023-03-19T11:18:32.060Z,96044
2023-03-19T11:19:32.080Z,96038
2023-03-19T11:20:32.085Z,96038
2023-03-19T11:21:32.146Z,96037
2023-03-19T11:22:32.064Z,96038
2023-03-19T11:23:32.089Z,96036
2023-03-19T11:24:32.097Z,96038
2023-03-19T11:25:32.124Z,96034
2023-03-19T11:26:32.098Z,96039
2023-03-19T11:27:33.718Z,96037
2023-03-19T11:28:32.052Z,96037
2023-03-19T11:29:32.066Z,96035
2023-03-19T11:30:32.071Z,96036
2023-03-19T11:31:32.168Z,96031
2023-03-19T11:34:32.144Z,96025
2023-03-19T11:35:32.132Z,96025
2023-03-19T11:36:32.097Z,96025
2023-03-19T11:37:32.130Z,96023
2023-03-19T11:38:32.082Z,96023
2023-03-19T11:39:32.125Z,96025
2023-03-19T11:40:32.123Z,96021
2023-03-19T11:41:32.113Z,96021
2023-03-19T11:42:32.100Z,96019
2023-03-19T11:43:32.092Z,96020
2023-03-19T11:44:32.211Z,96020
2023-03-19T11:45:32.173Z,96018
2023-03-19T11:47:32.102Z,96022
2023-03-19T11:49:32.181Z,96016
2023-03-19T11:50:32.145Z,96016
2023-03-19T11:51:32.170Z,96018
2023-03-19T11:52:32.162Z,96020
2023-03-19T11:53:32.160Z,96021
2023-03-19T11:54:32.168Z,96021
2023-03-19T11:55:32.619Z,96017
2023-03-19T11:56:32.137Z,96018
2023-03-19T11:57:32.143Z,96017
2023-03-19T11:58:32.144Z,96017
2023-03-19T11:59:32.153Z,96017
2023-03-19T12:00:32.147Z,96014
2023-03-19T12:01:32.155Z,96014
2023-03-19T12:02:32.261Z,96015
2023-03-19T12:03:32.206Z,96015
2023-03-19T12:04:34.254Z,96014
2023-03-19T12:05:32.431Z,96014
2023-03-19T12:06:32.200Z,96011
2023-03-19T12:07:32.164Z,96014
2023-03-19T12:08:32.203Z,96014
2023-03-19T12:09:32.191Z,96011
2023-03-19T12:10:32.407Z,96008
2023-03-19T12:11:32.207Z,96008
2023-03-19T12:12:32.194Z,96007
2023-03-19T12:15:32.541Z,96006
2023-03-19T12:16:32.252Z,96006
2023-03-19T12:17:32.219Z,96005
2023-03-19T12:18:32.227Z,96003
2023-03-19T12:19:32.478Z,96009
2023-03-19T12:20:32.279Z,96003
2023-03-19T12:21:32.252Z,96007
2023-03-19T12:22:32.215Z,96006
2023-03-19T12:23:35.364Z,96003
2023-03-19T12:24:32.239Z,96003
2023-03-19T12:25:32.277Z,96005
2023-03-19T12:26:32.249Z,96001
2023-03-19T12:27:32.256Z,96003
2023-03-19T12:28:32.271Z,96002
2023-03-19T12:29:32.211Z,96002
2023-03-19T12:30:32.210Z,96000
2023-03-19T12:31:32.330Z,96002
2023-03-19T12:33:32.295Z,95999
2023-03-19T12:34:32.245Z,96001
2023-03-19T12:35:32.449Z,95999
2023-03-19T12:36:32.245Z,95999
2023-03-19T12:37:32.280Z,96000
2023-03-19T12:38:32.243Z,96002
2023-03-19T12:39:32.308Z,96000
2023-03-19T12:40:32.293Z,96002
2023-03-19T12:41:34.657Z,96007
2023-03-19T12:42:32.326Z,96008
2023-03-19T12:43:32.338Z,96006
2023-03-19T12:44:32.285Z,96005
2023-03-19T12:45:32.636Z,96003
2023-03-19T12:46:32.343Z,95997
2023-03-19T12:47:32.301Z,95999
2023-03-19T12:48:32.309Z,95997
2023-03-19T12:49:32.312Z,96000
2023-03-19T12:50:32.715Z,96004
2023-03-19T12:51:32.268Z,96004
2023-03-19T12:52:32.274Z,95998
2023-03-19T12:54:32.344Z,96000
2023-03-19T12:56:32.338Z,95999
2023-03-19T12:57:32.304Z,95996
2023-03-19T12:58:32.327Z,95994
2023-03-19T12:59:32.310Z,96003
2023-03-19T13:00:32.548Z,95996
2023-03-19T13:01:32.382Z,95995
2023-03-19T13:03:32.340Z,95992
2023-03-19T13:04:32.332Z,95995
2023-03-19T13:05:32.322Z,95996
2023-03-19T13:07:32.338Z,95996
2023-03-19T13:08:32.331Z,95994
2023-03-19T13:09:32.361Z,95994
2023-03-19T13:10:32.585Z,95995
2023-03-19T13:11:32.375Z,95993
2023-03-19T13:12:32.326Z,95996
2023-03-19T13:13:32.318Z,95996
2023-03-19T13:14:32.392Z,95993
2023-03-19T13:15:32.396Z,95997
2023-03-19T13:16:32.477Z,95997
2023-03-19T13:18:35.006Z,96001
2023-03-19T13:19:32.424Z,95998
2023-03-19T13:20:32.495Z,95998
2023-03-19T13:21:32.420Z,95999
2023-03-19T13:22:32.385Z,96000
2023-03-19T13:23:32.370Z,96005
2023-03-19T13:24:32.425Z,96003
2023-03-19T13:28:32.401Z,95997
2023-03-19T13:29:32.521Z,96001
2023-03-19T13:30:32.586Z,96002
2023-03-19T13:31:32.394Z,96001
2023-03-19T13:32:32.446Z,96005
2023-03-19T13:33:32.417Z,96002
2023-03-19T13:34:33.220Z,95999
2023-03-19T13:36:32.427Z,96000
2023-03-19T13:37:32.390Z,96000
2023-03-19T13:38:32.434Z,96006
2023-03-19T13:39:32.608Z,96004
2023-03-19T13:40:32.570Z,96002
2023-03-19T13:41:32.404Z,96002
2023-03-19T13:42:32.431Z,96004
2023-03-19T13:44:32.495Z,96007
2023-03-19T13:45:32.439Z,96007
2023-03-19T13:46:32.499Z,96008
2023-03-19T13:47:32.489Z,96008
2023-03-19T13:48:32.529Z,96007
2023-03-19T13:49:32.482Z,96009
2023-03-19T13:50:32.541Z,96011
2023-03-19T13:51:32.491Z,96008
2023-03-19T13:52:32.427Z,96007
2023-03-19T13:53:32.497Z,96010
2023-03-19T13:54:32.441Z,96010
2023-03-19T13:55:35.440Z,96007
2023-03-19T13:56:32.513Z,96009
2023-03-19T13:57:32.453Z,96011
2023-03-19T13:58:32.439Z,96008
2023-03-19T13:59:32.448Z,96014
2023-03-19T14:00:32.697Z,96010
2023-03-19T14:01:32.487Z,96010
2023-03-19T14:02:32.464Z,96009
2023-03-19T14:03:32.465Z,96006
2023-03-19T14:04:32.524Z,96009
2023-03-19T14:05:32.498Z,96008
2023-03-19T14:06:32.596Z,96013
2023-03-19T14:07:32.513Z,96008
2023-03-19T14:08:32.541Z,96014
2023-03-19T14:09:32.477Z,96008
2023-03-19T14:10:32.708Z,96017
2023-03-19T14:11:32.520Z,96017
2023-03-19T14:13:32.496Z,96022
2023-03-19T14:14:32.515Z,96019
2023-03-19T14:15:32.497Z,96021
2023-03-19T14:16:32.713Z,96020
2023-03-19T14:17:32.772Z,96026
2023-03-19T14:18:32.537Z,96029
2023-03-19T14:19:32.565Z,96030
2023-03-19T14:20:39.281Z,96028
2023-03-19T14:21:32.545Z,96032
2023-03-19T14:22:32.507Z,96018
2023-03-19T14:23:40.889Z,96031
2023-03-19T14:24:55.189Z,96037
2023-03-19T14:25:32.533Z,96037